createdAt,value
2022-10-05T00:00:38.729Z,54.26
2022-10-05T00:03:10.829Z,54.63
2022-10-05T00:05:38.597Z,55.46
2022-10-05T00:08:16.728Z,54.55
2022-10-05T00:10:45.543Z,54.23
2022-10-05T00:13:25.548Z,55.08
2022-10-05T00:16:07.890Z,55.74
2022-10-05T00:18:35.952Z,54.93
2022-10-05T00:21:12.926Z,54.50
2022-10-05T00:23:41.032Z,54.47
2022-10-05T00:26:16.927Z,54.91
2022-10-05T00:28:44.973Z,54.31
2022-10-05T00:31:21.718Z,54.63
2022-10-05T00:33:51.041Z,54.67
2022-10-05T00:36:18.790Z,56.20
2022-10-05T00:38:46.425Z,55.79
2022-10-05T00:41:22.036Z,56.31
2022-10-05T00:43:55.576Z,55.99
2022-10-05T00:46:30.754Z,57.28
2022-10-05T00:49:13.410Z,57.46
2022-10-05T00:51:43.389Z,57.19
2022-10-05T00:54:34.500Z,57.13
2022-10-05T00:57:29.630Z,56.46
2022-10-05T01:00:03.815Z,56.25
2022-10-05T01:02:37.687Z,55.93
2022-10-05T01:05:20.460Z,55.67
2022-10-05T01:07:54.419Z,55.46
2022-10-05T01:10:33.652Z,55.01
2022-10-05T01:13:04.359Z,55.05
2022-10-05T01:16:10.374Z,55.64
2022-10-05T01:18:53.295Z,56.44
2022-10-05T01:21:25.139Z,56.21
2022-10-05T01:24:17.837Z,55.65
2022-10-05T01:27:07.262Z,56.74
2022-10-05T01:29:49.985Z,56.75
2022-10-05T01:32:35.567Z,56.13
2022-10-05T01:35:15.263Z,56.65
2022-10-05T01:38:04.607Z,56.47
2022-10-05T01:40:54.709Z,56.49
2022-10-05T01:43:25.025Z,56.32
2022-10-05T01:46:25.538Z,56.21
2022-10-05T01:49:12.164Z,56.14
2022-10-05T01:52:04.219Z,56.07
2022-10-05T01:54:37.842Z,55.83
2022-10-05T01:57:17.352Z,56.25
2022-10-05T02:00:06.200Z,56.43
2022-10-05T02:02:46.059Z,56.30
2022-10-05T02:05:21.467Z,56.62
2022-10-05T02:07:54.501Z,56.02
2022-10-05T02:10:26.455Z,56.05
2022-10-05T02:12:58.897Z,57.19
2022-10-05T02:15:30.249Z,57.05
2022-10-05T02:18:05.565Z,56.48
2022-10-05T02:20:33.208Z,56.78
2022-10-05T02:23:07.494Z,56.53
2022-10-05T02:25:37.909Z,56.26
2022-10-05T02:28:19.635Z,56.12
2022-10-05T02:31:08.889Z,56.02
2022-10-05T02:33:36.827Z,56.22
2022-10-05T02:36:12.765Z,56.35
2022-10-05T02:39:18.808Z,56.64
2022-10-05T02:41:53.592Z,56.13
2022-10-05T02:44:43.912Z,55.62
2022-10-05T02:47:21.873Z,55.62
2022-10-05T02:50:01.975Z,56.02
2022-10-05T02:52:42.038Z,55.97
2022-10-05T02:55:18.218Z,55.38
2022-10-05T02:58:14.237Z,55.00
2022-10-05T03:00:49.559Z,55.23
2022-10-05T03:03:40.108Z,54.86
2022-10-05T03:06:15.761Z,54.75
2022-10-05T03:08:58.682Z,54.70
2022-10-05T03:12:03.384Z,54.49
2022-10-05T03:15:09.601Z,54.62
2022-10-05T03:17:46.273Z,55.70
2022-10-05T03:20:49.865Z,54.98
2022-10-05T03:23:53.927Z,55.12
2022-10-05T03:26:33.735Z,55.03
2022-10-05T03:29:24.601Z,54.95
2022-10-05T03:32:23.266Z,54.63
2022-10-05T03:34:57.165Z,54.87
2022-10-05T03:37:43.215Z,55.22
2022-10-05T03:40:19.770Z,54.56
2022-10-05T03:43:04.241Z,54.01
2022-10-05T03:45:47.525Z,54.04
2022-10-05T03:48:21.622Z,53.39
2022-10-05T03:51:08.203Z,54.20
2022-10-05T03:53:42.477Z,54.49
2022-10-05T03:56:10.421Z,54.22
2022-10-05T03:59:18.876Z,53.75
2022-10-05T04:01:54.595Z,53.20
2022-10-05T04:04:31.759Z,53.22
2022-10-05T04:07:00.268Z,53.32
2022-10-05T04:09:37.497Z,53.44
2022-10-05T04:12:25.451Z,53.45
2022-10-05T04:14:57.741Z,53.54
2022-10-05T04:17:32.998Z,53.46
2022-10-05T04:20:06.235Z,54.02
2022-10-05T04:22:58.778Z,54.13
2022-10-05T04:25:40.398Z,53.89
2022-10-05T04:28:17.261Z,53.03
2022-10-05T04:30:48.126Z,53.22
2022-10-05T04:33:16.239Z,53.49
2022-10-05T04:36:05.392Z,54.33
2022-10-05T04:38:45.526Z,54.02
2022-10-05T04:41:25.127Z,54.14
2022-10-05T04:44:21.193Z,54.64
2022-10-05T04:47:14.166Z,54.63
2022-10-05T04:49:44.869Z,54.89
2022-10-05T04:52:35.269Z,54.34
2022-10-05T04:55:29.277Z,54.74
2022-10-05T04:58:09.182Z,53.61
2022-10-05T05:01:07.438Z,53.34
2022-10-05T05:03:51.104Z,53.84
2022-10-05T05:06:31.535Z,54.01
2022-10-05T05:09:24.304Z,53.90
2022-10-05T05:11:59.121Z,54.10
2022-10-05T05:14:38.738Z,54.61
2022-10-05T05:17:35.220Z,54.15
2022-10-05T05:20:15.249Z,53.75
2022-10-05T05:23:05.140Z,54.16
2022-10-05T05:25:43.315Z,54.38
2022-10-05T05:28:20.346Z,54.62
2022-10-05T05:31:02.266Z,53.96
2022-10-05T05:34:02.554Z,53.83
2022-10-05T05:36:39.203Z,53.50
2022-10-05T05:39:15.842Z,54.38
2022-10-05T05:42:17.861Z,54.11
2022-10-05T05:44:50.823Z,53.79
2022-10-05T05:47:26.961Z,53.69
2022-10-05T05:50:24.380Z,54.04
2022-10-05T05:53:01.333Z,54.20
2022-10-05T05:55:36.300Z,52.83
2022-10-05T05:58:22.297Z,53.12
2022-10-05T06:00:58.647Z,53.44
2022-10-05T06:03:50.560Z,52.03
2022-10-05T06:06:18.858Z,51.85
2022-10-05T06:08:53.320Z,51.98
2022-10-05T06:11:23.995Z,52.33
2022-10-05T06:13:52.170Z,52.68
2022-10-05T06:16:25.393Z,53.04
2022-10-05T06:19:04.946Z,53.18
2022-10-05T06:21:43.218Z,53.53
2022-10-05T06:24:43.758Z,53.76
2022-10-05T06:27:37.204Z,54.11
2022-10-05T06:30:15.606Z,54.28
2022-10-05T06:32:46.556Z,54.99
2022-10-05T06:35:30.729Z,55.12
2022-10-05T06:38:28.971Z,54.85
2022-10-05T06:41:04.428Z,54.95
2022-10-05T06:44:01.013Z,54.99
2022-10-05T06:46:55.130Z,54.78
2022-10-05T06:49:42.494Z,54.91
2022-10-05T06:52:30.327Z,54.55
2022-10-05T06:55:14.070Z,54.97
2022-10-05T06:58:20.865Z,54.19
2022-10-05T07:00:54.894Z,53.44
2022-10-05T07:03:41.544Z,53.47
2022-10-05T07:06:25.049Z,53.79
2022-10-05T07:09:02.222Z,54.77
2022-10-05T07:11:52.725Z,54.22
2022-10-05T07:14:39.014Z,55.46
2022-10-05T07:17:25.909Z,55.32
2022-10-05T07:20:22.684Z,54.83
2022-10-05T07:22:56.805Z,54.52
2022-10-05T07:25:31.586Z,55.34
2022-10-05T07:28:24.074Z,55.04
2022-10-05T07:31:09.740Z,55.70
2022-10-05T07:33:44.967Z,55.52
2022-10-05T07:36:32.378Z,55.49
2022-10-05T07:39:05.275Z,55.16
2022-10-05T07:41:51.810Z,54.35
2022-10-05T07:44:48.508Z,54.37
2022-10-05T07:47:35.522Z,54.84
2022-10-05T07:50:21.176Z,56.55
2022-10-05T07:52:56.547Z,56.40
2022-10-05T07:55:34.103Z,56.88
2022-10-05T07:58:06.267Z,56.26
2022-10-05T08:00:52.594Z,55.92
2022-10-05T08:03:23.453Z,55.79
2022-10-05T08:05:51.122Z,56.04
2022-10-05T08:08:52.553Z,55.81
2022-10-05T08:11:31.853Z,55.91
2022-10-05T08:14:08.180Z,57.31
2022-10-05T08:16:38.143Z,56.25
2022-10-05T08:19:23.361Z,57.15
2022-10-05T08:21:55.743Z,56.58
2022-10-05T08:24:23.100Z,56.75
2022-10-05T08:27:06.881Z,56.84
2022-10-05T08:29:52.843Z,55.63
2022-10-05T08:32:26.391Z,55.47
2022-10-05T08:35:25.370Z,55.38
2022-10-05T08:37:53.568Z,53.79
2022-10-05T08:40:26.918Z,55.11
2022-10-05T08:43:09.648Z,54.63
2022-10-05T08:46:07.675Z,54.56
2022-10-05T08:48:57.211Z,54.98
2022-10-05T08:51:51.799Z,53.89
2022-10-05T08:54:19.354Z,53.54
2022-10-05T08:56:58.674Z,53.09
2022-10-05T09:00:01.433Z,52.73
2022-10-05T09:02:47.237Z,53.42
2022-10-05T09:05:14.889Z,52.29
2022-10-05T09:08:20.754Z,52.45
2022-10-05T09:11:09.764Z,51.71
2022-10-05T09:14:17.444Z,51.42
2022-10-05T09:16:53.095Z,52.80
2022-10-05T09:19:48.190Z,52.65
2022-10-05T09:22:25.039Z,51.59
2022-10-05T09:25:00.440Z,52.64
2022-10-05T09:27:36.655Z,51.84
2022-10-05T09:30:12.987Z,51.03
2022-10-05T09:32:58.919Z,49.78
2022-10-05T09:36:04.217Z,51.08
2022-10-05T09:38:40.695Z,51.74
2022-10-05T09:41:29.153Z,51.52
2022-10-05T09:44:11.296Z,49.40
2022-10-05T09:46:51.470Z,49.59
2022-10-05T09:49:57.098Z,49.59
2022-10-05T09:52:32.617Z,50.35
2022-10-05T09:55:22.073Z,49.72
2022-10-05T09:58:17.092Z,50.18
2022-10-05T10:01:09.804Z,51.02
2022-10-05T10:03:43.199Z,49.06
2022-10-05T10:06:19.136Z,48.84
2022-10-05T10:08:50.651Z,49.48
2022-10-05T10:11:41.168Z,50.50
2022-10-05T10:14:11.525Z,50.61
2022-10-05T10:17:11.002Z,50.75
2022-10-05T10:20:15.803Z,49.13
2022-10-05T10:22:50.456Z,50.60
2022-10-05T10:25:49.411Z,49.09
2022-10-05T10:28:43.787Z,49.63
2022-10-05T10:31:26.728Z,49.41
2022-10-05T10:34:24.842Z,48.72
2022-10-05T10:37:21.665Z,50.13
2022-10-05T10:40:04.384Z,51.19
2022-10-05T10:42:44.018Z,49.85
2022-10-05T10:45:17.520Z,49.91
2022-10-05T10:47:52.804Z,50.30
2022-10-05T10:50:39.886Z,49.47
2022-10-05T10:53:07.532Z,48.57
2022-10-05T10:55:48.041Z,49.06
2022-10-05T10:58:43.911Z,49.27
2022-10-05T11:01:35.029Z,50.68
2022-10-05T11:04:21.170Z,50.22
2022-10-05T11:07:19.472Z,50.13
2022-10-05T11:09:59.314Z,51.45
2022-10-05T11:12:35.830Z,50.66
2022-10-05T11:15:47.936Z,50.74
2022-10-05T11:18:26.387Z,49.12
2022-10-05T11:21:09.910Z,49.36
2022-10-05T11:23:56.213Z,50.51
2022-10-05T11:26:46.628Z,49.87
2022-10-05T11:29:33.265Z,49.90
2022-10-05T11:32:19.248Z,49.45
2022-10-05T11:35:08.675Z,47.87
2022-10-05T11:37:59.027Z,49.11
2022-10-05T11:40:29.505Z,48.91
2022-10-05T11:43:22.302Z,47.64
2022-10-05T11:46:17.338Z,47.38
2022-10-05T11:49:04.724Z,46.78
2022-10-05T11:51:38.943Z,46.64
2022-10-05T11:54:10.086Z,44.99
2022-10-05T11:57:15.845Z,45.74
2022-10-05T11:59:50.040Z,45.95
2022-10-05T12:02:53.095Z,46.04
2022-10-05T12:05:36.086Z,45.57
2022-10-05T12:08:15.969Z,44.75
2022-10-05T12:11:15.237Z,44.58
2022-10-05T12:13:58.150Z,44.98
2022-10-05T12:16:34.803Z,44.91
2022-10-05T12:19:13.501Z,43.60
2022-10-05T12:21:45.916Z,42.88
2022-10-05T12:24:25.938Z,43.82
2022-10-05T12:27:05.265Z,43.07
2022-10-05T12:29:39.469Z,42.92
2022-10-05T12:32:19.313Z,42.41
2022-10-05T12:35:01.786Z,40.91
2022-10-05T12:37:49.069Z,42.23
2022-10-05T12:40:28.571Z,42.60
2022-10-05T12:43:11.574Z,41.98
2022-10-05T12:45:46.251Z,41.85
2022-10-05T12:48:18.809Z,42.50
2022-10-05T12:50:50.565Z,43.80
2022-10-05T12:53:42.132Z,43.11
2022-10-05T12:56:12.067Z,42.75
2022-10-05T12:58:48.849Z,42.94
2022-10-05T13:01:38.372Z,42.60
2022-10-05T13:04:24.374Z,43.51
2022-10-05T13:07:27.054Z,42.61
2022-10-05T13:10:03.733Z,42.17
2022-10-05T13:12:56.941Z,41.97
2022-10-05T13:15:31.528Z,43.58
2022-10-05T13:18:36.755Z,42.85
2022-10-05T13:21:13.992Z,40.45
2022-10-05T13:24:06.964Z,41.23
2022-10-05T13:26:37.185Z,42.25
2022-10-05T13:29:10.889Z,42.38
2022-10-05T13:31:45.163Z,42.32
2022-10-05T13:34:36.185Z,42.60
2022-10-05T13:37:06.359Z,42.70
2022-10-05T13:39:45.920Z,41.75
2022-10-05T13:42:17.636Z,42.40
2022-10-05T13:44:50.977Z,42.43
2022-10-05T13:47:39.129Z,41.17
2022-10-05T13:50:19.517Z,42.96
2022-10-05T13:53:11.567Z,42.39
2022-10-05T13:55:47.760Z,41.62
2022-10-05T13:58:21.232Z,41.63
2022-10-05T14:01:13.451Z,41.65
2022-10-05T14:03:41.398Z,42.72
2022-10-05T14:06:30.685Z,42.48
2022-10-05T14:08:59.954Z,42.52
2022-10-05T14:11:31.573Z,42.31
2022-10-05T14:14:26.543Z,42.49
2022-10-05T14:16:56.662Z,42.77
2022-10-05T14:19:27.175Z,42.50
2022-10-05T14:22:01.606Z,42.17
2022-10-05T14:24:43.759Z,41.74
2022-10-05T14:27:26.548Z,42.36
2022-10-05T14:29:57.787Z,42.36
2022-10-05T14:32:27.342Z,41.04
2022-10-05T14:35:15.434Z,42.24
2022-10-05T14:37:50.376Z,41.94
2022-10-05T14:40:38.134Z,41.75
2022-10-05T14:43:14.612Z,41.59
2022-10-05T14:46:02.660Z,42.09
2022-10-05T14:48:44.573Z,42.58
2022-10-05T14:51:28.402Z,43.21
2022-10-05T14:54:14.943Z,42.96
2022-10-05T14:56:48.401Z,43.22
2022-10-05T14:59:50.386Z,43.15
2022-10-05T15:02:33.495Z,42.97
2022-10-05T15:05:03.609Z,43.57
2022-10-05T15:07:36.158Z,43.39
2022-10-05T15:10:27.003Z,43.58
2022-10-05T15:12:59.059Z,43.72
2022-10-05T15:15:29.448Z,43.64
2022-10-05T15:18:00.653Z,44.25
2022-10-05T15:20:36.046Z,44.16
2022-10-05T15:23:32.880Z,44.46
2022-10-05T15:26:15.704Z,45.04
2022-10-05T15:29:02.105Z,45.70
2022-10-05T15:31:51.983Z,44.71
2022-10-05T15:34:25.841Z,44.93
2022-10-05T15:37:07.173Z,45.04
2022-10-05T15:39:38.934Z,45.07
2022-10-05T15:42:15.867Z,45.08
2022-10-05T15:44:50.023Z,45.79
2022-10-05T15:47:54.570Z,45.94
2022-10-05T15:50:46.605Z,46.09
2022-10-05T15:53:13.963Z,45.90
2022-10-05T15:55:41.611Z,45.71
2022-10-05T15:58:21.278Z,45.93
2022-10-05T16:00:57.817Z,46.22
2022-10-05T16:03:51.426Z,46.10
2022-10-05T16:06:57.432Z,46.06
2022-10-05T16:09:41.205Z,45.87
2022-10-05T16:12:09.697Z,45.67
2022-10-05T16:14:46.235Z,46.27
2022-10-05T16:17:41.004Z,45.67
2022-10-05T16:20:27.500Z,45.76
2022-10-05T16:23:08.146Z,46.02
2022-10-05T16:26:07.861Z,46.02
2022-10-05T16:28:47.612Z,46.42
2022-10-05T16:31:23.403Z,46.41
2022-10-05T16:34:17.133Z,46.83
2022-10-05T16:36:54.788Z,46.67
2022-10-05T16:39:44.101Z,46.75
2022-10-05T16:42:18.796Z,46.76
2022-10-05T16:45:12.362Z,47.24
2022-10-05T16:47:58.946Z,47.16
2022-10-05T16:50:49.648Z,47.28
2022-10-05T16:54:06.838Z,47.33
2022-10-05T16:56:42.607Z,47.38
2022-10-05T16:59:37.913Z,47.40
2022-10-05T17:02:53.271Z,47.36
2022-10-05T17:06:15.476Z,47.64
2022-10-05T17:08:59.126Z,47.45
2022-10-05T17:11:49.266Z,47.55
2022-10-05T17:14:32.595Z,47.30
2022-10-05T17:17:29.985Z,47.47
2022-10-05T17:20:07.086Z,47.93
2022-10-05T17:22:46.473Z,48.04
2022-10-05T17:25:28.799Z,47.86
2022-10-05T17:28:15.431Z,48.21
2022-10-05T17:31:07.678Z,48.33
2022-10-05T17:34:13.125Z,48.17
2022-10-05T17:36:41.609Z,48.23
2022-10-05T17:39:19.813Z,48.44
2022-10-05T17:41:47.891Z,48.37
2022-10-05T17:44:19.005Z,48.54
2022-10-05T17:47:00.454Z,48.83
2022-10-05T17:49:46.982Z,48.92
2022-10-05T17:52:41.715Z,48.80
2022-10-05T17:55:26.097Z,48.91
2022-10-05T17:57:59.701Z,49.21
2022-10-05T18:00:29.362Z,49.06
2022-10-05T18:02:58.269Z,48.71
2022-10-05T18:05:30.230Z,48.60
2022-10-05T18:08:13.306Z,48.64
2022-10-05T18:11:06.122Z,48.67
2022-10-05T18:13:35.974Z,48.95
2022-10-05T18:16:04.236Z,48.99
2022-10-05T18:18:33.489Z,48.99
2022-10-05T18:21:20.485Z,48.97
2022-10-05T18:24:14.352Z,49.09
2022-10-05T18:26:57.665Z,48.95
2022-10-05T18:29:55.002Z,49.35
2022-10-05T18:32:38.057Z,48.96
2022-10-05T18:35:28.222Z,48.71
2022-10-05T18:37:59.575Z,48.85
2022-10-05T18:40:50.655Z,48.61
2022-10-05T18:43:37.226Z,48.72
2022-10-05T18:46:19.864Z,48.55
2022-10-05T18:48:55.035Z,48.92
2022-10-05T18:51:31.445Z,49.42
2022-10-05T18:54:25.917Z,49.19
2022-10-05T18:56:53.583Z,48.41
2022-10-05T18:59:39.668Z,48.73
2022-10-05T19:02:07.122Z,48.64
2022-10-05T19:05:03.414Z,48.41
2022-10-05T19:08:01.546Z,48.23
2022-10-05T19:10:52.863Z,48.05
2022-10-05T19:13:42.341Z,47.98
2022-10-05T19:16:35.722Z,47.84
2022-10-05T19:19:12.897Z,47.70
2022-10-05T19:21:47.837Z,47.74
2022-10-05T19:24:37.563Z,47.88
2022-10-05T19:27:28.736Z,47.78
2022-10-05T19:30:10.457Z,47.93
2022-10-05T19:32:46.735Z,48.11
2022-10-05T19:35:31.102Z,48.25
2022-10-05T19:38:37.328Z,48.81
2022-10-05T19:41:32.083Z,48.91
2022-10-05T19:44:09.013Z,49.13
2022-10-05T19:47:22.293Z,48.89
2022-10-05T19:49:52.887Z,48.91
2022-10-05T19:52:28.488Z,48.80
2022-10-05T19:55:11.550Z,48.77
2022-10-05T19:57:56.624Z,48.70
2022-10-05T20:00:27.270Z,48.88
2022-10-05T20:03:18.014Z,48.71
2022-10-05T20:05:45.609Z,49.02
2022-10-05T20:08:18.390Z,48.97
2022-10-05T20:11:03.357Z,48.92
2022-10-05T20:13:33.519Z,48.90
2022-10-05T20:16:32.066Z,49.33
2022-10-05T20:19:18.607Z,49.37
2022-10-05T20:21:56.552Z,49.95
2022-10-05T20:24:26.553Z,50.07
2022-10-05T20:27:02.754Z,50.37
2022-10-05T20:29:41.568Z,50.61
2022-10-05T20:32:11.094Z,50.81
2022-10-05T20:34:43.658Z,51.07
2022-10-05T20:37:17.359Z,51.35
2022-10-05T20:39:45.460Z,51.60
2022-10-05T20:42:12.980Z,51.66
2022-10-05T20:44:40.787Z,51.68
2022-10-05T20:47:11.375Z,51.63
2022-10-05T20:49:41.159Z,51.96
2022-10-05T20:52:10.892Z,51.88
2022-10-05T20:54:39.171Z,51.59
2022-10-05T20:57:07.231Z,51.76
2022-10-05T20:59:35.946Z,51.83
2022-10-05T21:02:04.125Z,52.17
2022-10-05T21:04:40.283Z,52.47
2022-10-05T21:07:09.274Z,52.21
2022-10-05T21:09:38.546Z,52.42
2022-10-05T21:12:06.106Z,52.64
2022-10-05T21:14:36.231Z,52.76
2022-10-05T21:17:05.095Z,53.50
2022-10-05T21:19:38.218Z,52.82
2022-10-05T21:22:07.526Z,52.66
2022-10-05T21:24:36.377Z,52.76
2022-10-05T21:27:04.584Z,53.01
2022-10-05T21:29:34.002Z,52.82
2022-10-05T21:32:01.657Z,53.01
2022-10-05T21:34:29.134Z,52.75
2022-10-05T21:36:56.877Z,53.47
2022-10-05T21:39:24.857Z,53.17
2022-10-05T21:41:52.299Z,53.11
2022-10-05T21:44:20.026Z,53.50
2022-10-05T21:46:48.344Z,53.50
2022-10-05T21:49:18.958Z,53.91
2022-10-05T21:51:47.578Z,53.60
2022-10-05T21:54:20.285Z,53.90
2022-10-05T21:56:52.071Z,54.14
2022-10-05T21:59:21.590Z,54.42
2022-10-05T22:01:49.343Z,53.91
2022-10-05T22:04:17.333Z,53.93
2022-10-05T22:06:44.818Z,53.82
2022-10-05T22:09:12.325Z,53.90
2022-10-05T22:11:40.153Z,53.87
2022-10-05T22:14:07.661Z,53.80
2022-10-05T22:16:37.320Z,53.91
2022-10-05T22:19:07.529Z,53.78
2022-10-05T22:21:41.579Z,53.88
2022-10-05T22:24:11.486Z,54.16
2022-10-05T22:26:40.835Z,53.70
2022-10-05T22:29:09.651Z,53.70
2022-10-05T22:31:37.929Z,53.74
2022-10-05T22:34:05.783Z,53.90
2022-10-05T22:36:36.533Z,54.19
2022-10-05T22:39:04.435Z,54.80
2022-10-05T22:41:31.884Z,54.36
2022-10-05T22:44:00.187Z,54.23
2022-10-05T22:46:27.993Z,54.05
2022-10-05T22:48:55.598Z,53.90
2022-10-05T22:51:23.191Z,53.89
2022-10-05T22:53:51.019Z,53.93
2022-10-05T22:56:18.599Z,53.93
2022-10-05T22:58:46.361Z,54.01
2022-10-05T23:01:16.558Z,54.01
2022-10-05T23:03:44.613Z,54.19
2022-10-05T23:06:14.335Z,54.03
2022-10-05T23:08:42.813Z,54.40
2022-10-05T23:11:15.849Z,54.23
2022-10-05T23:13:44.209Z,54.51
2022-10-05T23:16:14.007Z,54.67
2022-10-05T23:18:41.661Z,54.50
2022-10-05T23:21:10.479Z,54.33
2022-10-05T23:23:39.537Z,54.67
2022-10-05T23:26:09.008Z,55.04
2022-10-05T23:28:38.997Z,54.53
2022-10-05T23:31:08.085Z,54.19
2022-10-05T23:33:35.771Z,54.40
2022-10-05T23:36:09.188Z,54.40
2022-10-05T23:38:36.640Z,54.32
2022-10-05T23:41:05.369Z,54.13
2022-10-05T23:43:33.478Z,54.13
2022-10-05T23:46:01.802Z,54.07
2022-10-05T23:48:30.458Z,54.06
2022-10-05T23:50:59.360Z,54.62
2022-10-05T23:53:26.882Z,54.48
2022-10-05T23:55:55.545Z,54.49
2022-10-05T23:58:23.383Z,54.18
